Clifford Maersk — OYRO2 — position and weather

sailwx.info

Track history (hours):
 
Tides and Currents Weather Stations Pressure Air Temp Water Temp Dewpoint Dewpoint Depression Visibility Wind Speed Wind Dir Waves Ship Positions

Clifford Maersk

Last reported at 2018-Apr-09 02:06 UTC. Time now 2018-Apr-21 09:33 UTC.
Position N 41°39' E 141°54'.
Warning: this ship's position is 12 days out of date.

Type: Ship (hazmat cat A). MMSI: 219840000.

Date/timePositionNaut miles runAvg speedWind from/ knotsBaromVisibWave heightAir tempDewpointWater temp
2018-Apr-09 02:06N 41°39' E 141°54'919.0
2018-Apr-09 01:37N 41°40' E 141°42'218.7
2018-Apr-09 01:30N 41°40' E 141°39'1019.4
2018-Apr-09 01:00N 41°40' E 141°26'918.6
2018-Apr-09 00:31N 41°40' E 141°14'918.8
2018-Apr-09 00:01N 41°40' E 141°01'1020.2
2018-Apr-08 23:31N 41°38' E 140°48'1019.5
2018-Apr-08 23:00N 41°32' E 140°37'1020.6
2018-Apr-08 22:31N 41°25' E 140°27'1020.5
2018-Apr-08 22:00N 41°19' E 140°16'  
2018-Apr-05 08:44N 30°33' E 122°16'414.0
2018-Apr-05 08:29N 30°34' E 122°11'8 0.3
2018-Apr-04 07:21N 30°37' E 122°03'1 1.9
2018-Apr-04 06:52N 30°37' E 122°03'0 0.8
2018-Apr-04 06:29N 30°36' E 122°04'2 3.7
2018-Apr-04 05:57N 30°36' E 122°06'332 6.9
2018-Apr-02 05:44N 35°58' E 120°34'1311.4
2018-Apr-02 04:36N 36°01' E 120°18'211.1
2018-Apr-02 04:27N 36°02' E 120°16'3 5.7
2018-Apr-02 03:53N 36°00' E 120°13'0 0.1
2018-Apr-02 03:13N 36°00' E 120°13'0 0.0
2018-Apr-02 02:53N 36°00' E 120°13'0 0.0
2018-Apr-02 02:17N 36°00' E 120°13'0 0.0
2018-Apr-02 01:56N 36°00' E 120°13'0 0.1
2018-Apr-02 00:59N 36°00' E 120°13'0 0.1
2018-Apr-02 00:23N 36°00' E 120°13'0 0.0
2018-Apr-01 23:47N 36°00' E 120°13'0 0.2
2018-Apr-01 23:29N 36°00' E 120°13'0 0.0
2018-Apr-01 22:11N 36°00' E 120°13'0 0.0
2018-Apr-01 21:50N 36°00' E 120°13'0 0.0
2018-Apr-01 21:17N 36°00' E 120°13'0 0.0
2018-Apr-01 20:59N 36°00' E 120°13'0 0.0
2018-Apr-01 20:23N 36°00' E 120°13'0 0.0
2018-Apr-01 19:48N 36°00' E 120°13'0 0.2
2018-Apr-01 19:29N 36°00' E 120°13'0 0.1
2018-Apr-01 18:56N 36°00' E 120°13'0 0.0
2018-Apr-01 18:17N 36°00' E 120°13'0 0.2
2018-Apr-01 18:00N 36°00' E 120°13'0 0.0
2018-Apr-01 15:29N 36°00' E 120°13'0 0.0
2018-Apr-01 11:42N 36°00' E 120°13'0 0.0
2018-Apr-01 09:17N 36°00' E 120°13'0 0.0
2018-Apr-01 08:50N 36°00' E 120°13'0 0.0
2018-Apr-01 08:14N 36°00' E 120°13'0 0.1
2018-Apr-01 07:23N 36°00' E 120°13'0 0.1
2018-Apr-01 06:26N 36°00' E 120°13'0 0.0
2018-Apr-01 04:41N 36°00' E 120°13'0 0.0
2018-Apr-01 04:26N 36°00' E 120°13'0 0.1
2018-Apr-01 03:50N 36°00' E 120°13'0 0.0
2018-Apr-01 02:20N 36°00' E 120°13'0 0.0
2018-Apr-01 01:47N 36°00' E 120°13'0 0.0
2018-Apr-01 01:23N 36°00' E 120°13'0 0.0
2018-Apr-01 00:11N 36°00' E 120°13'0 0.0
2018-Mar-31 23:53N 36°00' E 120°13'0 0.0
2018-Mar-31 23:17N 36°00' E 120°13'0 0.2
2018-Mar-31 22:59N 36°00' E 120°13'0 0.0
2018-Mar-31 22:23N 36°00' E 120°13'0 0.1
2018-Mar-31 21:47N 36°00' E 120°13'0 0.0
2018-Mar-31 21:14N 36°00' E 120°13'0 0.0
2018-Mar-31 20:56N 36°00' E 120°13'0 0.0
2018-Mar-31 20:20N 36°00' E 120°13'0 0.0
2018-Mar-31 19:47N 36°00' E 120°13'0 0.0
2018-Mar-31 19:26N 36°00' E 120°13'0 0.0
2018-Mar-31 18:53N 36°00' E 120°13'0 0.0
2018-Mar-31 17:48N 36°00' E 120°13'0 0.0
2018-Mar-31 14:30N 36°00' E 120°13'0 0.0
2018-Mar-31 13:47N 36°00' E 120°13'0 0.0
2018-Mar-31 13:14N 36°00' E 120°13'0 0.0
2018-Mar-31 12:54N 36°00' E 120°13'0 0.0
2018-Mar-31 12:20N 36°00' E 120°13'0 0.0
2018-Mar-31 11:59N 36°00' E 120°13'0 0.0
2018-Mar-31 11:11N 36°00' E 120°13'0 0.2
2018-Mar-31 10:54N 36°00' E 120°13'0 0.0
2018-Mar-31 10:00N 36°00' E 120°13'0 0.1
2018-Mar-31 09:26N 36°00' E 120°13'0 0.0
2018-Mar-31 08:51N 36°00' E 120°13'0 0.0
2018-Mar-31 07:18N 36°00' E 120°13'0 0.0
2018-Mar-31 06:05N 36°00' E 120°13'0 0.0
2018-Mar-31 05:48N 36°00' E 120°13'0 0.0
2018-Mar-31 05:26N 36°00' E 120°13'0 0.0
2018-Mar-31 04:53N 36°00' E 120°13'0 0.0
2018-Mar-31 03:41N 36°00' E 120°13'0 0.0
2018-Mar-31 03:26N 36°00' E 120°13'0 0.1
2018-Mar-31 02:33N 36°00' E 120°13'0 0.2
2018-Mar-31 02:14N 36°00' E 120°13'0 0.2
2018-Mar-31 01:56N 36°00' E 120°13'0 0.0
2018-Mar-31 01:20N 36°00' E 120°13'0 0.0
2018-Mar-31 00:38N 36°00' E 120°13'0 0.0
2018-Mar-30 23:40N 36°00' E 120°13'0 0.0
2018-Mar-30 23:23N 36°00' E 120°13'0 0.0
2018-Mar-30 22:47N 36°00' E 120°13'0 0.0
2018-Mar-30 22:29N 36°00' E 120°13'0 0.0
2018-Mar-30 21:53N 36°00' E 120°13'0 0.0
2018-Mar-30 21:20N 36°00' E 120°13'0 0.0
2018-Mar-30 19:50N 36°00' E 120°13'0 0.0
2018-Mar-30 19:29N 36°00' E 120°13'0 0.0
2018-Mar-30 18:54N 36°00' E 120°13'0 0.0
2018-Mar-30 18:20N 36°00' E 120°13'0 0.1
2018-Mar-30 17:56N 36°00' E 120°13'0 0.0
2018-Mar-30 16:02N 36°00' E 120°13'0 0.0
2018-Mar-30 15:53N 36°00' E 120°13'0 0.0
2018-Mar-30 14:37N 36°00' E 120°13'0 0.0
2018-Mar-30 14:12N 36°00' E 120°13'0 0.0
2018-Mar-30 13:20N 36°00' E 120°13'0 0.1
2018-Mar-30 12:29N 36°00' E 120°13'0 0.1
2018-Mar-30 11:50N 36°00' E 120°13'0 0.0
2018-Mar-30 11:29N 36°00' E 120°13'0 0.0
2018-Mar-30 10:53N 36°00' E 120°13'0 0.0
2018-Mar-30 10:29N 36°00' E 120°13'0 0.0
2018-Mar-30 09:50N 36°00' E 120°13'0 0.0
2018-Mar-30 09:13N 36°00' E 120°13'0 0.0
2018-Mar-30 08:50N 36°00' E 120°13'0 0.0
2018-Mar-30 07:41N 36°00' E 120°13'0 0.0
2018-Mar-30 06:35N 36°00' E 120°13'0 0.0
2018-Mar-30 05:45N 36°00' E 120°13'0 0.0
2018-Mar-30 05:27N 36°00' E 120°13'0 0.0
2018-Mar-30 03:48N 36°00' E 120°13'0 0.0
2018-Mar-30 03:14N 36°00' E 120°13'0 0.0
2018-Mar-30 02:59N 36°00' E 120°13'  
Track history (hours):
 
Tides and Currents Weather Stations Pressure Air Temp Water Temp Dewpoint Dewpoint Depression Visibility Wind Speed Wind Dir Waves Ship Positions

Clifford Maersk

Last reported at 2018-Apr-09 02:06 UTC. Time now 2018-Apr-21 09:33 UTC.
Position N 41°39' E 141°54'.
Warning: this ship's position is 12 days out of date.

Type: Ship (hazmat cat A). MMSI: 219840000.

Date/timePositionNaut miles runAvg speedWind from/ knotsBaromVisibWave heightAir tempDewpointWater temp
2018-Apr-09 02:06N 41°39' E 141°54'919.0
2018-Apr-09 01:37N 41°40' E 141°42'218.7
2018-Apr-09 01:30N 41°40' E 141°39'1019.4
2018-Apr-09 01:00N 41°40' E 141°26'918.6
2018-Apr-09 00:31N 41°40' E 141°14'918.8
2018-Apr-09 00:01N 41°40' E 141°01'1020.2
2018-Apr-08 23:31N 41°38' E 140°48'1019.5
2018-Apr-08 23:00N 41°32' E 140°37'1020.6
2018-Apr-08 22:31N 41°25' E 140°27'1020.5
2018-Apr-08 22:00N 41°19' E 140°16'  
2018-Apr-05 08:44N 30°33' E 122°16'414.0
2018-Apr-05 08:29N 30°34' E 122°11'8 0.3
2018-Apr-04 07:21N 30°37' E 122°03'1 1.9
2018-Apr-04 06:52N 30°37' E 122°03'0 0.8
2018-Apr-04 06:29N 30°36' E 122°04'2 3.7
2018-Apr-04 05:57N 30°36' E 122°06'332 6.9
2018-Apr-02 05:44N 35°58' E 120°34'1311.4
2018-Apr-02 04:36N 36°01' E 120°18'211.1
2018-Apr-02 04:27N 36°02' E 120°16'3 5.7
2018-Apr-02 03:53N 36°00' E 120°13'0 0.1
2018-Apr-02 03:13N 36°00' E 120°13'0 0.0
2018-Apr-02 02:53N 36°00' E 120°13'0 0.0
2018-Apr-02 02:17N 36°00' E 120°13'0 0.0
2018-Apr-02 01:56N 36°00' E 120°13'0 0.1
2018-Apr-02 00:59N 36°00' E 120°13'0 0.1
2018-Apr-02 00:23N 36°00' E 120°13'0 0.0
2018-Apr-01 23:47N 36°00' E 120°13'0 0.2
2018-Apr-01 23:29N 36°00' E 120°13'0 0.0
2018-Apr-01 22:11N 36°00' E 120°13'0 0.0
2018-Apr-01 21:50N 36°00' E 120°13'0 0.0
2018-Apr-01 21:17N 36°00' E 120°13'0 0.0
2018-Apr-01 20:59N 36°00' E 120°13'0 0.0
2018-Apr-01 20:23N 36°00' E 120°13'0 0.0
2018-Apr-01 19:48N 36°00' E 120°13'0 0.2
2018-Apr-01 19:29N 36°00' E 120°13'0 0.1
2018-Apr-01 18:56N 36°00' E 120°13'0 0.0
2018-Apr-01 18:17N 36°00' E 120°13'0 0.2
2018-Apr-01 18:00N 36°00' E 120°13'0 0.0
2018-Apr-01 15:29N 36°00' E 120°13'0 0.0
2018-Apr-01 11:42N 36°00' E 120°13'0 0.0
2018-Apr-01 09:17N 36°00' E 120°13'0 0.0
2018-Apr-01 08:50N 36°00' E 120°13'0 0.0
2018-Apr-01 08:14N 36°00' E 120°13'0 0.1
2018-Apr-01 07:23N 36°00' E 120°13'0 0.1
2018-Apr-01 06:26N 36°00' E 120°13'0 0.0
2018-Apr-01 04:41N 36°00' E 120°13'0 0.0
2018-Apr-01 04:26N 36°00' E 120°13'0 0.1
2018-Apr-01 03:50N 36°00' E 120°13'0 0.0
2018-Apr-01 02:20N 36°00' E 120°13'0 0.0
2018-Apr-01 01:47N 36°00' E 120°13'0 0.0
2018-Apr-01 01:23N 36°00' E 120°13'0 0.0
2018-Apr-01 00:11N 36°00' E 120°13'0 0.0
2018-Mar-31 23:53N 36°00' E 120°13'0 0.0
2018-Mar-31 23:17N 36°00' E 120°13'0 0.2
2018-Mar-31 22:59N 36°00' E 120°13'0 0.0
2018-Mar-31 22:23N 36°00' E 120°13'0 0.1
2018-Mar-31 21:47N 36°00' E 120°13'0 0.0
2018-Mar-31 21:14N 36°00' E 120°13'0 0.0
2018-Mar-31 20:56N 36°00' E 120°13'0 0.0
2018-Mar-31 20:20N 36°00' E 120°13'0 0.0
2018-Mar-31 19:47N 36°00' E 120°13'0 0.0
2018-Mar-31 19:26N 36°00' E 120°13'0 0.0
2018-Mar-31 18:53N 36°00' E 120°13'0 0.0
2018-Mar-31 17:48N 36°00' E 120°13'0 0.0
2018-Mar-31 14:30N 36°00' E 120°13'0 0.0
2018-Mar-31 13:47N 36°00' E 120°13'0 0.0
2018-Mar-31 13:14N 36°00' E 120°13'0 0.0
2018-Mar-31 12:54N 36°00' E 120°13'0 0.0
2018-Mar-31 12:20N 36°00' E 120°13'0 0.0
2018-Mar-31 11:59N 36°00' E 120°13'0 0.0
2018-Mar-31 11:11N 36°00' E 120°13'0 0.2
2018-Mar-31 10:54N 36°00' E 120°13'0 0.0
2018-Mar-31 10:00N 36°00' E 120°13'0 0.1
2018-Mar-31 09:26N 36°00' E 120°13'0 0.0
2018-Mar-31 08:51N 36°00' E 120°13'0 0.0
2018-Mar-31 07:18N 36°00' E 120°13'0 0.0
2018-Mar-31 06:05N 36°00' E 120°13'0 0.0
2018-Mar-31 05:48N 36°00' E 120°13'0 0.0
2018-Mar-31 05:26N 36°00' E 120°13'0 0.0
2018-Mar-31 04:53N 36°00' E 120°13'0 0.0
2018-Mar-31 03:41N 36°00' E 120°13'0 0.0
2018-Mar-31 03:26N 36°00' E 120°13'0 0.1
2018-Mar-31 02:33N 36°00' E 120°13'0 0.2
2018-Mar-31 02:14N 36°00' E 120°13'0 0.2
2018-Mar-31 01:56N 36°00' E 120°13'0 0.0
2018-Mar-31 01:20N 36°00' E 120°13'0 0.0
2018-Mar-31 00:38N 36°00' E 120°13'0 0.0
2018-Mar-30 23:40N 36°00' E 120°13'0 0.0
2018-Mar-30 23:23N 36°00' E 120°13'0 0.0
2018-Mar-30 22:47N 36°00' E 120°13'0 0.0
2018-Mar-30 22:29N 36°00' E 120°13'0 0.0
2018-Mar-30 21:53N 36°00' E 120°13'0 0.0
2018-Mar-30 21:20N 36°00' E 120°13'0 0.0
2018-Mar-30 19:50N 36°00' E 120°13'0 0.0
2018-Mar-30 19:29N 36°00' E 120°13'0 0.0
2018-Mar-30 18:54N 36°00' E 120°13'0 0.0
2018-Mar-30 18:20N 36°00' E 120°13'0 0.1
2018-Mar-30 17:56N 36°00' E 120°13'0 0.0
2018-Mar-30 16:02N 36°00' E 120°13'0 0.0
2018-Mar-30 15:53N 36°00' E 120°13'0 0.0
2018-Mar-30 14:37N 36°00' E 120°13'0 0.0
2018-Mar-30 14:12N 36°00' E 120°13'0 0.0
2018-Mar-30 13:20N 36°00' E 120°13'0 0.1
2018-Mar-30 12:29N 36°00' E 120°13'0 0.1
2018-Mar-30 11:50N 36°00' E 120°13'0 0.0
2018-Mar-30 11:29N 36°00' E 120°13'0 0.0
2018-Mar-30 10:53N 36°00' E 120°13'0 0.0
2018-Mar-30 10:29N 36°00' E 120°13'0 0.0
2018-Mar-30 09:50N 36°00' E 120°13'0 0.0
2018-Mar-30 09:13N 36°00' E 120°13'0 0.0
2018-Mar-30 08:50N 36°00' E 120°13'0 0.0
2018-Mar-30 07:41N 36°00' E 120°13'0 0.0
2018-Mar-30 06:35N 36°00' E 120°13'0 0.0
2018-Mar-30 05:45N 36°00' E 120°13'0 0.0
2018-Mar-30 05:27N 36°00' E 120°13'0 0.0
2018-Mar-30 03:48N 36°00' E 120°13'0 0.0
2018-Mar-30 03:14N 36°00' E 120°13'0 0.0
2018-Mar-30 02:59N 36°00' E 120°13'  

Dump ship's entire track history